createdAt,value
2018-07-22T00:01:49.000Z,25.1
2018-07-22T00:11:49.000Z,25.1
2018-07-22T00:21:49.000Z,24.9
2018-07-22T00:31:49.000Z,25
2018-07-22T00:41:49.000Z,24.9
2018-07-22T00:51:49.000Z,25
2018-07-22T01:01:49.000Z,25
2018-07-22T01:11:49.000Z,24.9
2018-07-22T01:21:49.000Z,24.8
2018-07-22T01:31:49.000Z,25
2018-07-22T01:41:49.000Z,24.9
2018-07-22T01:51:49.000Z,24.8
2018-07-22T02:01:49.000Z,24.8
2018-07-22T02:11:49.000Z,24.8
2018-07-22T02:21:50.000Z,25
2018-07-22T02:31:49.000Z,24.9
2018-07-22T02:41:50.000Z,24.9
2018-07-22T02:51:50.000Z,24.8
2018-07-22T03:01:50.000Z,24.6
2018-07-22T03:11:50.000Z,24.7
2018-07-22T03:21:50.000Z,24.7
2018-07-22T03:31:50.000Z,24.7
2018-07-22T03:41:50.000Z,24.6
2018-07-22T03:51:50.000Z,24.5
2018-07-22T04:01:50.000Z,24.4
2018-07-22T04:11:50.000Z,24.4
2018-07-22T04:21:50.000Z,24.4
2018-07-22T04:31:50.000Z,24.4
2018-07-22T04:41:50.000Z,24.4
2018-07-22T04:51:50.000Z,24.4
2018-07-22T05:01:50.000Z,24.4
2018-07-22T05:11:50.000Z,24.3
2018-07-22T05:21:50.000Z,24.5
2018-07-22T05:31:50.000Z,24.7
2018-07-22T05:41:51.000Z,24.6
2018-07-22T05:51:50.000Z,24.7
2018-07-22T06:01:50.000Z,24.9
2018-07-22T06:11:51.000Z,25
2018-07-22T06:21:50.000Z,25.2
2018-07-22T06:31:50.000Z,25.3
2018-07-22T06:41:50.000Z,25.3
2018-07-22T06:51:50.000Z,25.3
2018-07-22T07:01:50.000Z,25.2
2018-07-22T07:11:50.000Z,25.3
2018-07-22T07:21:50.000Z,25.3
2018-07-22T07:31:50.000Z,25.4
2018-07-22T07:41:50.000Z,25.3
2018-07-22T07:51:52.000Z,25.4
2018-07-22T08:01:50.000Z,25.4
2018-07-22T08:11:50.000Z,25.5
2018-07-22T08:21:50.000Z,25.7
2018-07-22T08:31:50.000Z,25.8
2018-07-22T08:41:50.000Z,25.8
2018-07-22T08:51:50.000Z,25.9
2018-07-22T09:01:51.000Z,25.8
2018-07-22T09:11:50.000Z,25.9
2018-07-22T09:21:51.000Z,25.9
2018-07-22T09:31:51.000Z,25.8
2018-07-22T09:41:51.000Z,25.8
2018-07-22T09:51:51.000Z,25.9
2018-07-22T10:01:51.000Z,25.9
2018-07-22T10:11:51.000Z,25.9
2018-07-22T10:21:51.000Z,26
2018-07-22T10:31:51.000Z,26
2018-07-22T10:41:51.000Z,25.9
2018-07-22T10:51:52.000Z,26
2018-07-22T11:01:51.000Z,26
2018-07-22T11:11:51.000Z,26
2018-07-22T11:21:52.000Z,26.1
2018-07-22T11:31:54.000Z,26.1
2018-07-22T11:41:51.000Z,26
2018-07-22T11:51:51.000Z,26.1
2018-07-22T12:01:51.000Z,26
2018-07-22T12:11:51.000Z,26.2
2018-07-22T12:21:51.000Z,26.1
2018-07-22T12:31:51.000Z,26.1
2018-07-22T12:41:51.000Z,26.2
2018-07-22T12:51:51.000Z,26.2
2018-07-22T13:01:51.000Z,26.2
2018-07-22T13:11:51.000Z,26.3
2018-07-22T13:21:51.000Z,26.4
2018-07-22T13:31:51.000Z,26.4
2018-07-22T13:41:51.000Z,26.4
2018-07-22T13:51:51.000Z,26.4
2018-07-22T14:01:51.000Z,26.4
2018-07-22T14:11:51.000Z,26.5
2018-07-22T14:21:51.000Z,26.5
2018-07-22T14:31:51.000Z,26.6
2018-07-22T14:41:51.000Z,26.6
2018-07-22T14:51:51.000Z,26.6
2018-07-22T15:01:51.000Z,26.6
2018-07-22T15:11:51.000Z,26.6
2018-07-22T15:21:52.000Z,26.6
2018-07-22T15:31:51.000Z,26.6
2018-07-22T15:41:51.000Z,26.5
2018-07-22T15:51:51.000Z,26.7
2018-07-22T16:01:52.000Z,26.6
2018-07-22T16:11:52.000Z,26.5
2018-07-22T16:21:52.000Z,26.6
2018-07-22T16:31:52.000Z,26.6
2018-07-22T16:41:52.000Z,26.6
2018-07-22T16:51:52.000Z,26.6
2018-07-22T17:01:52.000Z,26.6
2018-07-22T17:11:52.000Z,26.6
2018-07-22T17:21:52.000Z,26.6
2018-07-22T17:31:52.000Z,26.6
2018-07-22T17:41:52.000Z,26.4
2018-07-22T17:51:52.000Z,26.4
2018-07-22T18:01:52.000Z,26.5
2018-07-22T18:11:52.000Z,26.6
2018-07-22T18:21:53.000Z,26.5
2018-07-22T18:31:52.000Z,26.5
2018-07-22T18:41:52.000Z,26.5
2018-07-22T18:51:52.000Z,26.4
2018-07-22T19:01:52.000Z,26.4
2018-07-22T19:11:52.000Z,26.4
2018-07-22T19:21:52.000Z,26.3
2018-07-22T19:31:52.000Z,26.3
2018-07-22T19:41:52.000Z,26.2
2018-07-22T19:51:52.000Z,26.1
2018-07-22T20:01:52.000Z,26
2018-07-22T20:11:52.000Z,26
2018-07-22T20:21:52.000Z,26
2018-07-22T20:31:52.000Z,26
2018-07-22T20:41:52.000Z,26
2018-07-22T20:51:53.000Z,25.8
2018-07-22T21:01:52.000Z,25.8
2018-07-22T21:11:52.000Z,25.8
2018-07-22T21:21:52.000Z,25.7
2018-07-22T21:31:52.000Z,25.8
2018-07-22T21:41:52.000Z,25.9
2018-07-22T21:51:52.000Z,26.1
2018-07-22T22:01:52.000Z,26.1
2018-07-22T22:11:52.000Z,26
2018-07-22T22:21:52.000Z,25.9
2018-07-22T22:31:52.000Z,26
2018-07-22T22:41:53.000Z,25.9
2018-07-22T22:51:53.000Z,25.8
2018-07-22T23:01:53.000Z,25.7
2018-07-22T23:11:53.000Z,25.6
2018-07-22T23:21:53.000Z,25.6
2018-07-22T23:31:53.000Z,25.7
2018-07-22T23:41:53.000Z,25.5
2018-07-22T23:51:53.000Z,25.5
